Portada
METAR-TAF:

METAR-TAF

Aeropuertos :

Aeropuerto Internacional de Paso de los Libres

Paso de los Libres, Argentina

latitud: 29-41S, longitud: 057-09W, altitud: 69 m

Observación

El informe se hizo hace 13 minutos, a las 22:00 UTC
Viento 15 kt del este
Temperatura 28°C
Humedad 55%
Presión 1015 hPa
Visibilidad 10 km o más
sin nubes por debajo de 1500 m y sin presencia de cumulonimbus.

METAR: SARL 212200Z 09015KT CAVOK 28/18 Q1015

Hora: 19:13 (22:13 UTC)


TAF: falta

Observaciones y pronósticos meteorológicos de más de 4000 aeropuertos (mensajes METAR y TAF).

Los puntos amarillos y rojos representan las estaciones disponibles.

Ponga el ratón en el punto deseado para ver el nombre de la estación.

Haga clic para ver las observaciones y los pronósticos meteorológicos.

Para cambiar el mapa : haga clic en los botones verdes con una cruz de color negro para hacer un zoom, en el botón verde con un guión para alejar o en las flechas verdes para mapas adyacentes.


METAR-TAF: